createdAt,value
2022-09-07T00:03:31.916Z,3.88
2022-09-07T00:09:04.480Z,3.47
2022-09-07T00:14:35.467Z,3.80
2022-09-07T00:20:08.331Z,3.85
2022-09-07T00:25:40.249Z,3.85
2022-09-07T00:31:18.442Z,4.10
2022-09-07T00:36:49.558Z,3.67
2022-09-07T00:42:22.156Z,4.10
2022-09-07T00:48:03.307Z,3.80
2022-09-07T00:53:41.567Z,4.00
2022-09-07T00:59:14.823Z,4.15
2022-09-07T01:04:52.122Z,3.95
2022-09-07T01:10:26.921Z,4.20
2022-09-07T01:16:43.117Z,3.92
2022-09-07T01:22:42.037Z,4.22
2022-09-07T01:28:25.281Z,4.13
2022-09-07T01:34:08.359Z,3.90
2022-09-07T01:39:57.259Z,4.30
2022-09-07T01:45:33.506Z,4.05
2022-09-07T01:51:05.206Z,4.13
2022-09-07T01:56:45.602Z,4.15
2022-09-07T02:02:20.726Z,4.40
2022-09-07T02:07:58.062Z,4.22
2022-09-07T02:13:36.245Z,4.07
2022-09-07T02:19:11.234Z,4.03
2022-09-07T02:24:46.044Z,4.13
2022-09-07T02:30:17.398Z,4.15
2022-09-07T02:35:48.479Z,3.90
2022-09-07T02:41:38.005Z,3.83
2022-09-07T02:47:46.392Z,4.50
2022-09-07T02:53:45.896Z,4.05
2022-09-07T02:59:29.891Z,4.30
2022-09-07T03:05:03.725Z,4.45
2022-09-07T03:10:35.039Z,4.50
2022-09-07T03:16:06.193Z,4.20
2022-09-07T03:21:37.223Z,3.90
2022-09-07T03:27:12.489Z,4.28
2022-09-07T03:32:43.864Z,4.63
2022-09-07T03:38:15.053Z,4.10
2022-09-07T03:43:46.247Z,4.30
2022-09-07T03:49:17.712Z,4.22
2022-09-07T03:54:48.644Z,4.35
2022-09-07T04:00:19.828Z,4.18
2022-09-07T04:05:51.256Z,4.35
2022-09-07T04:11:22.406Z,4.13
2022-09-07T04:16:53.479Z,4.50
2022-09-07T04:22:24.839Z,4.55
2022-09-07T04:27:57.075Z,4.07
2022-09-07T04:33:28.302Z,4.87
2022-09-07T04:39:02.325Z,4.40
2022-09-07T04:44:33.836Z,4.30
2022-09-07T04:50:05.436Z,4.85
2022-09-07T04:55:36.515Z,4.32
2022-09-07T05:01:09.375Z,4.40
2022-09-07T05:06:41.300Z,4.20
2022-09-07T05:12:12.269Z,4.50
2022-09-07T05:17:43.160Z,4.50
2022-09-07T05:23:14.671Z,4.43
2022-09-07T05:28:46.123Z,4.15
2022-09-07T05:34:33.427Z,3.88
2022-09-07T05:40:06.069Z,4.20
2022-09-07T05:45:37.647Z,4.70
2022-09-07T05:51:09.644Z,4.53
2022-09-07T05:56:40.514Z,4.68
2022-09-07T06:02:15.207Z,4.40
2022-09-07T06:07:49.496Z,4.32
2022-09-07T06:13:20.760Z,4.60
2022-09-07T06:18:52.180Z,4.68
2022-09-07T06:24:23.446Z,5.35
2022-09-07T06:29:54.952Z,4.82
2022-09-07T06:35:26.171Z,5.05
2022-09-07T06:58:27.475Z,6.70
2022-09-07T07:03:58.529Z,16.33
2022-09-07T07:09:29.618Z,28.27
2022-09-07T07:15:00.556Z,21.63
2022-09-07T07:20:32.286Z,14.73
2022-09-07T07:26:04.900Z,15.93
2022-09-07T07:37:08.066Z,13.68
2022-09-07T07:42:40.812Z,16.65
2022-09-07T07:48:13.244Z,12.57
2022-09-07T07:53:45.650Z,14.50
2022-09-07T07:59:16.577Z,11.85
2022-09-07T08:04:47.542Z,10.63
2022-09-07T08:10:22.109Z,16.90
2022-09-07T08:16:04.114Z,10.98
2022-09-07T08:21:40.184Z,10.13
2022-09-07T08:27:11.716Z,9.35
2022-09-07T08:32:44.352Z,8.70
2022-09-07T08:38:20.442Z,8.57
2022-09-07T08:44:02.164Z,9.07
2022-09-07T08:49:44.782Z,8.80
2022-09-07T08:55:57.486Z,8.50
2022-09-07T09:01:36.023Z,8.98
2022-09-07T09:07:25.138Z,7.10
2022-09-07T09:13:11.628Z,6.93
2022-09-07T09:18:45.816Z,6.63
2022-09-07T09:24:19.482Z,6.88
2022-09-07T09:29:50.594Z,7.00
2022-09-07T09:35:32.822Z,6.88
2022-09-07T09:41:06.560Z,6.88
2022-09-07T09:46:38.123Z,5.93
2022-09-07T09:52:29.799Z,6.43
2022-09-07T10:04:24.847Z,6.68
2022-09-07T10:09:56.965Z,6.40
2022-09-07T10:15:40.401Z,12.52
2022-09-07T10:21:29.155Z,7.82
2022-09-07T10:27:00.254Z,9.20
2022-09-07T10:32:45.438Z,7.47
2022-09-07T10:38:23.063Z,7.10
2022-09-07T10:43:54.942Z,6.75
2022-09-07T10:49:34.227Z,6.32
2022-09-07T10:55:26.517Z,6.60
2022-09-07T11:01:12.777Z,7.07
2022-09-07T11:06:55.647Z,6.00
2022-09-07T11:12:35.026Z,7.10
2022-09-07T11:18:18.938Z,6.43
2022-09-07T11:23:58.788Z,5.10
2022-09-07T11:29:47.448Z,5.10
2022-09-07T11:35:47.819Z,5.05
2022-09-07T11:41:43.284Z,4.40
2022-09-07T11:48:03.575Z,4.32
2022-09-07T11:53:37.933Z,4.38
2022-09-07T11:59:40.326Z,4.68
2022-09-07T12:05:49.046Z,4.53
2022-09-07T12:11:40.422Z,3.85
2022-09-07T12:17:20.690Z,4.43
2022-09-07T12:23:05.363Z,4.68
2022-09-07T12:28:36.700Z,4.78
2022-09-07T12:34:32.466Z,4.65
2022-09-07T12:40:30.477Z,4.45
2022-09-07T12:46:02.153Z,4.43
2022-09-07T12:58:00.523Z,4.72
2022-09-07T13:03:59.753Z,4.45
2022-09-07T13:09:39.247Z,5.20
2022-09-07T13:15:38.869Z,4.90
2022-09-07T13:21:11.042Z,4.80
2022-09-07T13:26:53.777Z,4.97
2022-09-07T13:38:25.556Z,6.15
2022-09-07T13:44:01.770Z,5.93
2022-09-07T13:49:36.090Z,5.32
2022-09-07T13:56:03.484Z,5.45
2022-09-07T14:01:35.683Z,4.32
2022-09-07T14:07:20.342Z,5.10
2022-09-07T14:13:06.462Z,3.83
2022-09-07T14:18:40.114Z,3.80
2022-09-07T14:24:27.093Z,4.00
2022-09-07T14:30:17.047Z,3.40
2022-09-07T14:35:49.124Z,3.70
2022-09-07T14:41:20.680Z,3.47
2022-09-07T14:46:55.357Z,3.70
2022-09-07T14:53:33.404Z,3.50
2022-09-07T14:58:32.694Z,3.55
2022-09-07T15:04:03.933Z,3.20
2022-09-07T15:09:37.071Z,3.05
2022-09-07T15:15:28.311Z,3.47
2022-09-07T15:20:59.524Z,3.30
2022-09-07T15:32:29.023Z,3.50
2022-09-07T15:38:02.403Z,3.30
2022-09-07T15:43:37.976Z,3.65
2022-09-07T15:49:12.471Z,3.05
2022-09-07T15:54:43.834Z,3.47
2022-09-07T16:00:15.162Z,3.65
2022-09-07T16:05:46.809Z,3.53
2022-09-07T16:11:23.971Z,3.20
2022-09-07T16:28:43.364Z,3.50
2022-09-07T16:34:18.549Z,3.83
2022-09-07T16:39:49.854Z,3.90
2022-09-07T16:51:13.674Z,4.03
2022-09-07T16:56:45.475Z,3.42
2022-09-07T17:02:18.257Z,3.33
2022-09-07T17:07:49.763Z,3.33
2022-09-07T17:13:22.632Z,3.00
2022-09-07T17:24:48.729Z,3.03
2022-09-07T17:30:20.804Z,3.03
2022-09-07T17:35:53.098Z,3.00
2022-09-07T17:46:58.090Z,2.53
2022-09-07T17:52:29.321Z,2.65
2022-09-07T17:58:04.451Z,2.85
2022-09-07T18:03:36.220Z,3.10
2022-09-07T18:09:07.404Z,2.75
2022-09-07T18:14:38.443Z,2.85
2022-09-07T18:20:10.080Z,2.38
2022-09-07T18:25:43.223Z,2.80
2022-09-07T18:31:15.222Z,3.17
2022-09-07T18:36:47.603Z,2.65
2022-09-07T18:42:22.390Z,2.45
2022-09-07T18:47:54.735Z,2.38
2022-09-07T18:58:58.537Z,2.58
2022-09-07T19:05:49.484Z,2.50
2022-09-07T19:10:21.705Z,2.35
2022-09-07T19:15:54.729Z,2.20
2022-09-07T19:21:33.057Z,2.60
2022-09-07T19:27:04.898Z,2.92
2022-09-07T19:32:36.282Z,2.40
2022-09-07T19:38:07.728Z,2.70
2022-09-07T19:43:39.215Z,2.30
2022-09-07T19:49:12.417Z,2.35
2022-09-07T19:54:44.398Z,1.90
2022-09-07T20:00:15.783Z,2.15
2022-09-07T20:05:47.727Z,2.33
2022-09-07T20:11:19.302Z,2.63
2022-09-07T20:16:50.751Z,2.60
2022-09-07T20:22:22.642Z,2.38
2022-09-07T20:27:53.875Z,2.37
2022-09-07T20:33:24.922Z,2.50
2022-09-07T20:38:56.805Z,2.25
2022-09-07T20:44:27.830Z,2.33
2022-09-07T20:49:59.079Z,2.17
2022-09-07T20:55:30.316Z,2.15
2022-09-07T21:01:01.656Z,2.70
2022-09-07T21:06:33.360Z,2.33
2022-09-07T21:12:05.637Z,2.17
2022-09-07T21:17:36.995Z,2.20
2022-09-07T21:23:08.796Z,2.08
2022-09-07T21:28:40.825Z,2.10
2022-09-07T21:34:11.956Z,2.65
2022-09-07T21:39:43.238Z,2.30
2022-09-07T21:45:14.976Z,2.33
2022-09-07T21:50:47.029Z,2.20
2022-09-07T21:56:18.014Z,2.65
2022-09-07T22:01:49.540Z,2.40
2022-09-07T22:07:20.734Z,2.50
2022-09-07T22:12:51.959Z,2.80
2022-09-07T22:18:23.008Z,2.85
2022-09-07T22:24:00.198Z,2.80
2022-09-07T22:29:31.543Z,2.78
2022-09-07T22:35:02.449Z,2.42
2022-09-07T22:40:33.365Z,2.30
2022-09-07T22:46:21.713Z,2.33
2022-09-07T22:51:52.832Z,2.83
2022-09-07T22:57:23.752Z,2.58
2022-09-07T23:02:54.718Z,2.50
2022-09-07T23:08:26.407Z,2.15
2022-09-07T23:13:59.747Z,2.35
2022-09-07T23:19:31.042Z,2.58
2022-09-07T23:25:02.376Z,2.00
2022-09-07T23:30:35.878Z,2.35
2022-09-07T23:36:08.304Z,2.20
2022-09-07T23:41:39.423Z,2.20
2022-09-07T23:47:10.551Z,2.67
2022-09-07T23:52:41.800Z,2.65
2022-09-07T23:58:13.259Z,2.33
